Time;durP1;ratioP1;P1;durP2;ratioP2;P2;SDS_P1;SDS_P2;PMS_P1;PMS_P2;Temp;Humidity;BMP_temperature;BMP_pressure;BME280_temperature;BME280_humidity;BME280_pressure;Samples;Min_cycle;Max_cycle;Signal;HPM_P1;HPM_P2
2024/03/13 00:01:09;;;;;;;99.78;53.53;;;10.90;87.00;;;;;;4934682;28;113287;-52
2024/03/13 00:03:38;;;;;;;101.18;52.08;;;10.90;87.30;;;;;;4949722;28;112667;-52
2024/03/13 00:06:04;;;;;;;91.65;51.33;;;10.80;87.50;;;;;;4949714;28;112713;-52
2024/03/13 00:08:30;;;;;;;79.10;50.63;;;10.80;87.50;;;;;;4948923;28;113886;-52
2024/03/13 00:11:02;;;;;;;107.07;48.33;;;10.80;87.20;;;;;;4948446;28;113066;-52
2024/03/13 00:14:01;;;;;;;86.40;47.88;;;10.70;86.60;;;;;;4948648;28;114031;-53
2024/03/13 00:16:27;;;;;;;295.42;51.47;;;10.70;87.10;;;;;;4949634;28;112593;-52
2024/03/13 00:18:53;;;;;;;91.63;51.70;;;10.70;87.00;;;;;;4948130;28;113186;-53
2024/03/13 00:21:18;;;;;;;167.50;53.60;;;10.60;87.20;;;;;;4948439;28;112622;-52
2024/03/13 00:23:44;;;;;;;74.75;45.42;;;10.70;87.30;;;;;;4949260;28;113229;-54
2024/03/13 00:26:10;;;;;;;78.88;48.22;;;10.70;87.20;;;;;;4949622;28;112842;-52
2024/03/13 00:28:36;;;;;;;80.85;47.80;;;10.80;86.90;;;;;;4948387;28;113693;-51
2024/03/13 00:31:03;;;;;;;76.20;44.05;;;10.60;87.00;;;;;;4946821;28;114525;-51
2024/03/13 00:33:29;;;;;;;184.15;48.05;;;10.70;87.20;;;;;;4948518;28;112749;-53
2024/03/13 00:35:55;;;;;;;125.82;51.72;;;10.60;87.10;;;;;;4949236;28;112769;-52
2024/03/13 00:38:25;;;;;;;79.70;48.10;;;10.50;87.70;;;;;;4947817;28;114445;-52
2024/03/13 00:40:52;;;;;;;160.82;51.08;;;10.50;87.90;;;;;;4948045;28;113807;-51
2024/03/13 00:43:20;;;;;;;111.20;49.10;;;10.60;87.60;;;;;;4948886;28;112609;-51
2024/03/13 00:49:08;;;;;;;121.22;49.15;;;10.60;87.70;;;;;;4946313;28;113209;-51
2024/03/13 00:51:35;;;;;;;108.32;49.60;;;10.40;88.50;;;;;;4946782;28;112690;-54
2024/03/13 00:54:04;;;;;;;114.68;50.53;;;10.40;88.20;;;;;;4948939;28;112672;-52
2024/03/13 00:56:33;;;;;;;166.98;54.58;;;10.40;88.20;;;;;;4947753;28;113864;-52
2024/03/13 00:58:59;;;;;;;119.32;52.08;;;10.40;88.30;;;;;;4947878;28;113774;-51
2024/03/13 01:01:25;;;;;;;83.25;48.92;;;10.30;88.10;;;;;;4936574;28;114260;-52
2024/03/13 01:03:57;;;;;;;212.85;50.58;;;10.30;88.30;;;;;;4959031;28;112515;-53
2024/03/13 01:06:28;;;;;;;103.60;43.92;;;10.30;88.00;;;;;;4958705;28;112872;-54
2024/03/13 01:08:57;;;;;;;80.65;47.50;;;10.20;88.00;;;;;;4953466;28;113062;-52
2024/03/13 01:11:28;;;;;;;102.75;47.05;;;10.10;88.10;;;;;;4953004;28;113042;-53
2024/03/13 01:13:55;;;;;;;68.00;42.53;;;10.00;87.60;;;;;;4948649;28;113394;-55
2024/03/13 01:16:22;;;;;;;74.38;39.47;;;10.20;87.60;;;;;;4952582;28;112993;-54
2024/03/13 01:18:52;;;;;;;103.05;41.75;;;10.10;87.60;;;;;;4962401;28;113575;-52
2024/03/13 01:21:18;;;;;;;78.63;41.70;;;10.00;87.50;;;;;;4954249;28;113730;-52
2024/03/13 01:23:43;;;;;;;67.60;41.28;;;10.00;87.70;;;;;;4947237;28;112733;-53
2024/03/13 01:26:09;;;;;;;52.17;39.45;;;10.00;87.60;;;;;;4948263;28;113303;-52
2024/03/13 01:28:39;;;;;;;105.03;43.70;;;10.00;87.20;;;;;;4948923;28;114330;-52
2024/03/13 01:31:07;;;;;;;167.07;44.42;;;9.90;87.50;;;;;;4942824;28;114576;-52
2024/03/13 01:33:38;;;;;;;94.80;43.83;;;9.80;87.60;;;;;;4950182;28;112803;-52
2024/03/13 01:36:05;;;;;;;64.97;39.83;;;9.70;88.10;;;;;;4948047;28;112676;-52
2024/03/13 01:38:31;;;;;;;52.25;37.67;;;9.70;87.90;;;;;;4946917;28;113402;-52
2024/03/13 01:55:23;;;;;;;118.38;45.05;;;9.60;87.40;;;;;;4935055;28;112702;-54
2024/03/13 01:57:56;;;;;;;55.75;40.90;;;9.50;87.60;;;;;;4931754;28;113899;-52
2024/03/13 02:03:14;;;;;;;69.13;41.95;;;9.60;87.80;;;;;;4933144;28;112701;-52
2024/03/13 02:05:42;;;;;;;95.03;43.30;;;9.40;88.00;;;;;;4947757;28;112823;-52
2024/03/13 02:08:09;;;;;;;65.28;41.63;;;9.40;87.90;;;;;;4946629;28;113509;-53
2024/03/13 02:10:35;;;;;;;103.45;45.88;;;9.40;87.70;;;;;;4938018;28;115134;-52
2024/03/13 02:13:12;;;;;;;91.80;47.63;;;9.50;87.80;;;;;;4942101;28;113242;-52
2024/03/13 02:15:40;;;;;;;77.78;43.42;;;9.40;88.10;;;;;;4947123;28;112819;-52
2024/03/13 02:18:19;;;;;;;144.23;49.88;;;9.30;88.00;;;;;;4947279;28;112777;-52
2024/03/13 02:20:46;;;;;;;61.35;45.20;;;9.20;88.20;;;;;;4946918;28;113255;-52
2024/03/13 02:23:32;;;;;;;52.90;41.80;;;9.40;88.40;;;;;;4946356;28;112825;-53
2024/03/13 02:25:58;;;;;;;55.15;40.33;;;9.40;88.00;;;;;;4947326;28;112794;-51
2024/03/13 02:28:36;;;;;;;69.28;43.17;;;9.40;87.70;;;;;;4933725;28;112667;-52
2024/03/13 02:31:02;;;;;;;64.93;43.90;;;9.40;87.50;;;;;;4946446;28;114797;-52
2024/03/13 02:33:28;;;;;;;93.35;45.40;;;9.40;87.40;;;;;;4946386;28;113146;-53
2024/03/13 02:35:54;;;;;;;61.05;44.97;;;9.20;87.90;;;;;;4947066;28;112553;-53
2024/03/13 02:38:20;;;;;;;71.53;44.70;;;9.30;88.10;;;;;;4947198;28;112783;-51
2024/03/13 02:40:46;;;;;;;48.65;42.60;;;9.40;87.80;;;;;;4946277;28;113183;-52
2024/03/13 02:43:12;;;;;;;49.42;42.42;;;9.50;87.30;;;;;;4946049;28;113787;-52
2024/03/13 02:45:43;;;;;;;44.08;39.30;;;9.50;86.90;;;;;;4947077;28;112972;-52
2024/03/13 02:48:11;;;;;;;42.65;37.92;;;9.40;86.80;;;;;;4947414;28;112720;-52
2024/03/13 02:50:40;;;;;;;42.45;37.97;;;9.50;86.90;;;;;;4946093;28;113398;-51
2024/03/13 02:53:07;;;;;;;42.53;38.00;;;9.40;86.90;;;;;;4946119;28;112749;-52
2024/03/13 02:55:36;;;;;;;44.33;38.88;;;9.40;86.80;;;;;;4946720;28;112680;-52
2024/03/13 02:58:02;;;;;;;44.63;39.92;;;9.40;86.80;;;;;;4945731;28;113128;-52
2024/03/13 03:00:29;;;;;;;44.05;39.20;;;9.40;87.00;;;;;;4946305;28;114303;-52
2024/03/13 03:02:56;;;;;;;44.45;39.53;;;9.40;86.90;;;;;;4932241;28;112900;-52
2024/03/13 03:05:22;;;;;;;45.72;40.72;;;9.40;86.90;;;;;;4947067;28;112620;-52
2024/03/13 03:07:47;;;;;;;;;;;9.40;86.80;;;;;;4947513;28;113131;-51
2024/03/13 03:10:13;;;;;;;41.42;36.95;;;9.40;86.80;;;;;;4947773;28;114317;-52
2024/03/13 03:12:42;;;;;;;43.22;38.63;;;9.50;86.50;;;;;;4945865;28;113209;-53
2024/03/13 03:15:08;;;;;;;45.70;37.78;;;9.50;86.40;;;;;;4946740;28;112587;-55
2024/03/13 03:17:34;;;;;;;40.65;36.25;;;9.50;86.00;;;;;;4946956;28;112730;-52
2024/03/13 03:20:00;;;;;;;42.60;38.00;;;9.50;86.30;;;;;;4945890;28;113375;-52
2024/03/13 03:22:26;;;;;;;42.72;38.03;;;9.40;86.20;;;;;;4945825;28;112660;-52
2024/03/13 03:24:51;;;;;;;38.63;34.63;;;9.50;86.20;;;;;;4946931;28;112900;-52
2024/03/13 03:27:17;;;;;;;38.97;34.83;;;9.60;85.90;;;;;;4946836;28;112794;-52
2024/03/13 03:29:43;;;;;;;39.33;35.22;;;9.50;85.80;;;;;;4945405;28;114380;-54
2024/03/13 03:32:09;;;;;;;39.65;35.55;;;9.50;86.10;;;;;;4945553;28;112805;-51
2024/03/13 03:34:35;;;;;;;39.28;34.92;;;9.50;86.00;;;;;;4945348;28;112995;-52
2024/03/13 03:37:03;;;;;;;39.42;35.17;;;9.40;85.90;;;;;;4946448;28;112978;-54
2024/03/13 03:39:33;;;;;;;38.80;33.85;;;9.40;85.70;;;;;;4945175;28;113865;-55
2024/03/13 03:41:58;;;;;;;39.53;35.25;;;9.50;85.70;;;;;;4945266;28;113844;-53
2024/03/13 03:44:24;;;;;;;39.20;34.20;;;9.40;85.60;;;;;;4946405;28;112740;-51
2024/03/13 03:46:50;;;;;;;38.75;34.60;;;9.40;85.40;;;;;;4946412;28;113167;-51
2024/03/13 03:49:15;;;;;;;43.13;37.97;;;9.40;85.50;;;;;;4947666;28;113173;-51
2024/03/13 03:51:41;;;;;;;52.83;43.03;;;9.40;85.60;;;;;;4949001;28;112937;-54
2024/03/13 03:54:07;;;;;;;46.17;40.60;;;9.40;85.40;;;;;;4949876;28;112465;-52
2024/03/13 03:56:38;;;;;;;42.55;37.95;;;9.40;85.60;;;;;;4949660;28;113020;-51
2024/03/13 03:59:07;;;;;;;45.13;37.15;;;9.40;85.40;;;;;;4948681;28;113153;-51
2024/03/13 04:01:34;;;;;;;39.80;35.60;;;9.40;85.70;;;;;;4941417;28;114674;-51
2024/03/13 04:04:02;;;;;;;42.53;37.92;;;9.50;85.50;;;;;;4943040;28;112894;-54
2024/03/13 04:06:28;;;;;;;48.13;40.95;;;9.50;85.50;;;;;;4949414;28;113306;-54
2024/03/13 04:08:54;;;;;;;46.75;40.42;;;9.40;85.60;;;;;;4948857;28;114428;-53
2024/03/13 04:11:19;;;;;;;43.67;38.70;;;9.30;86.20;;;;;;4948580;28;112568;-52
2024/03/13 04:13:46;;;;;;;47.58;40.58;;;9.30;86.10;;;;;;4949570;28;112703;-53
2024/03/13 04:16:13;;;;;;;49.75;41.13;;;9.20;86.30;;;;;;4949551;28;113024;-53
2024/03/13 04:18:39;;;;;;;45.80;39.13;;;9.40;86.10;;;;;;4947924;28;114405;-52
2024/03/13 04:21:05;;;;;;;48.22;42.30;;;9.30;85.70;;;;;;4948424;28;112614;-54
2024/03/13 04:23:31;;;;;;;50.72;43.55;;;9.40;85.80;;;;;;4947789;28;112575;-53
2024/03/13 04:25:56;;;;;;;52.35;43.92;;;9.20;85.90;;;;;;4949544;28;112634;-52
2024/03/13 04:28:22;;;;;;;49.78;42.40;;;9.10;86.20;;;;;;4948164;28;113217;-53
2024/03/13 04:30:48;;;;;;;51.35;42.45;;;9.10;86.20;;;;;;4948292;28;112896;-52
2024/03/13 04:33:17;;;;;;;50.35;41.25;;;9.20;86.30;;;;;;4948461;28;112892;-52
2024/03/13 04:35:43;;;;;;;50.47;42.05;;;9.20;86.20;;;;;;4949112;28;112824;-54
2024/03/13 04:38:09;;;;;;;49.70;41.30;;;9.30;86.10;;;;;;4947615;28;113296;-52
2024/03/13 04:40:38;;;;;;;53.28;43.67;;;9.30;86.20;;;;;;4948358;28;112643;-52
2024/03/13 04:43:05;;;;;;;54.47;44.15;;;9.30;86.40;;;;;;4948875;28;112570;-53
2024/03/13 04:45:31;;;;;;;57.38;43.70;;;9.40;86.30;;;;;;4948700;28;112787;-52
2024/03/13 04:47:57;;;;;;;57.13;43.78;;;9.40;86.30;;;;;;4947802;28;114370;-53
2024/03/13 04:50:23;;;;;;;57.58;44.95;;;9.60;86.20;;;;;;4947628;28;114281;-54
2024/03/13 04:52:49;;;;;;;56.00;45.88;;;9.70;86.00;;;;;;4947318;28;112696;-52
2024/03/13 04:55:14;;;;;;;59.15;46.17;;;9.60;86.10;;;;;;4949026;28;112746;-54
2024/03/13 04:57:40;;;;;;;55.83;44.72;;;9.50;86.30;;;;;;4947796;28;114814;-52
2024/03/13 05:00:07;;;;;;;56.45;45.13;;;9.60;86.40;;;;;;4947474;28;112763;-53
2024/03/13 05:02:32;;;;;;;55.38;43.35;;;9.60;86.30;;;;;;4934693;28;112502;-52
2024/03/13 05:04:58;;;;;;;52.95;43.13;;;9.60;86.10;;;;;;4948874;28;112940;-51
2024/03/13 05:07:24;;;;;;;60.30;43.92;;;9.60;86.30;;;;;;4948177;28;113292;-51
2024/03/13 05:09:51;;;;;;;59.97;47.17;;;9.60;86.30;;;;;;4947575;28;112821;-54
2024/03/13 05:12:17;;;;;;;64.38;47.85;;;9.60;86.30;;;;;;4948419;28;112991;-52
2024/03/13 05:14:42;;;;;;;62.17;45.50;;;9.60;86.40;;;;;;4948396;28;113150;-52
2024/03/13 05:17:15;;;;;;;58.25;45.00;;;9.50;86.40;;;;;;4947541;28;113284;-52
2024/03/13 05:19:43;;;;;;;64.57;45.45;;;9.50;86.60;;;;;;4947401;28;113710;-52
2024/03/13 05:22:09;;;;;;;58.90;45.20;;;9.40;86.60;;;;;;4948138;28;112660;-52
2024/03/13 05:24:35;;;;;;;63.90;47.70;;;9.40;86.70;;;;;;4948305;28;112781;-52
2024/03/13 05:27:01;;;;;;;62.35;47.72;;;9.40;86.80;;;;;;4947722;28;114431;-52
2024/03/13 05:29:27;;;;;;;62.75;47.60;;;9.40;86.90;;;;;;4947278;28;113203;-52
2024/03/13 05:31:54;;;;;;;69.18;48.63;;;9.40;86.90;;;;;;4948178;28;112655;-52
2024/03/13 05:34:21;;;;;;;69.15;48.67;;;9.40;86.80;;;;;;4948388;28;113013;-52
2024/03/13 05:36:47;;;;;;;74.72;50.95;;;9.50;86.90;;;;;;4947127;28;113709;-52
2024/03/13 05:39:12;;;;;;;68.82;48.60;;;9.50;86.70;;;;;;4947007;28;112614;-52
2024/03/13 05:41:38;;;;;;;63.80;47.00;;;9.60;86.70;;;;;;4948036;28;112597;-52
2024/03/13 05:44:04;;;;;;;58.15;45.08;;;9.60;86.60;;;;;;4947876;28;112704;-53
2024/03/13 05:46:30;;;;;;;60.25;45.97;;;9.70;86.20;;;;;;4947067;28;114415;-51
2024/03/13 05:48:56;;;;;;;60.72;46.10;;;9.70;86.00;;;;;;4946969;28;114026;-52
2024/03/13 05:51:23;;;;;;;56.90;44.40;;;9.80;86.20;;;;;;4948278;28;112590;-52
2024/03/13 05:53:49;;;;;;;59.83;43.30;;;9.70;86.00;;;;;;4947962;28;112726;-51
2024/03/13 05:56:14;;;;;;;60.85;42.42;;;9.80;85.90;;;;;;4946962;28;114214;-51
2024/03/13 05:58:41;;;;;;;57.47;42.80;;;9.80;85.70;;;;;;4946411;28;113724;-52
2024/03/13 06:01:11;;;;;;;50.80;38.60;;;9.80;85.50;;;;;;4944179;28;112699;-52
2024/03/13 06:03:37;;;;;;;46.78;36.15;;;9.80;85.30;;;;;;4938384;28;112658;-51
2024/03/13 06:06:03;;;;;;;47.17;35.17;;;9.80;84.70;;;;;;4946741;28;113404;-51
2024/03/13 06:08:30;;;;;;;43.50;34.95;;;9.90;84.20;;;;;;4947298;28;112751;-52
2024/03/13 06:10:56;;;;;;;42.03;34.17;;;9.80;84.40;;;;;;4946430;28;112877;-52
2024/03/13 06:13:22;;;;;;;46.50;35.05;;;9.80;84.70;;;;;;4948200;28;113076;-53
2024/03/13 06:15:48;;;;;;;45.22;32.53;;;9.70;84.80;;;;;;4946998;28;113177;-51
2024/03/13 06:18:14;;;;;;;43.33;32.72;;;9.80;84.40;;;;;;4946443;28;112741;-51
2024/03/13 06:20:40;;;;;;;40.83;31.88;;;10.00;83.80;;;;;;4947574;28;112931;-53
2024/03/13 06:23:06;;;;;;;36.70;30.45;;;9.90;83.60;;;;;;4947217;28;112724;-51
2024/03/13 06:25:39;;;;;;;41.55;32.15;;;10.10;83.30;;;;;;4946540;28;113234;-57
2024/03/13 06:30:50;;;;;;;43.20;35.17;;;10.20;83.70;;;;;;4947554;28;112443;-51
2024/03/13 06:33:16;;;;;;;43.15;34.33;;;10.20;83.70;;;;;;4931274;28;113198;-54
2024/03/13 06:35:41;;;;;;;44.42;33.22;;;10.20;83.70;;;;;;4927080;28;113147;-52
2024/03/13 06:38:08;;;;;;;44.65;34.47;;;10.30;83.40;;;;;;4926045;28;112772;-52
2024/03/13 06:40:34;;;;;;;47.17;36.28;;;10.30;83.60;;;;;;4926438;28;112569;-51
2024/03/13 06:43:01;;;;;;;49.28;36.67;;;10.30;83.60;;;;;;4926433;28;112822;-52
2024/03/13 06:45:26;;;;;;;49.80;35.22;;;10.30;84.10;;;;;;4926675;28;113413;-55
2024/03/13 06:47:52;;;;;;;46.17;33.90;;;10.30;84.00;;;;;;4926540;28;113866;-53
2024/03/13 06:50:18;;;;;;;41.95;34.58;;;10.30;83.50;;;;;;4940531;28;112693;-51
2024/03/13 06:52:44;;;;;;;40.95;32.70;;;10.40;83.20;;;;;;4935677;28;112844;-51
2024/03/13 06:55:09;;;;;;;40.22;32.80;;;10.30;83.10;;;;;;4931919;28;113366;-51
2024/03/13 06:57:35;;;;;;;39.22;29.65;;;10.30;83.10;;;;;;4942945;28;114123;-51
2024/03/13 07:00:01;;;;;;;38.33;29.95;;;10.40;82.30;;;;;;4946413;28;113086;-50
2024/03/13 07:02:30;;;;;;;36.40;26.73;;;10.40;82.20;;;;;;4929968;28;112776;-50
2024/03/13 07:04:56;;;;;;;28.10;24.40;;;10.40;81.30;;;;;;4946174;28;115048;-54
2024/03/13 07:07:22;;;;;;;32.42;25.35;;;10.30;80.50;;;;;;4935326;28;113211;-51
2024/03/13 07:09:49;;;;;;;26.05;22.85;;;10.50;80.30;;;;;;4941996;28;112849;-51
2024/03/13 07:12:15;;;;;;;28.75;22.20;;;10.60;79.70;;;;;;4925632;28;113497;-51
2024/03/13 07:14:41;;;;;;;25.02;21.30;;;10.50;78.90;;;;;;4924705;28;113682;-51
2024/03/13 07:17:07;;;;;;;23.33;20.73;;;10.70;78.30;;;;;;4924538;28;114066;-51
2024/03/13 07:19:37;;;;;;;24.13;19.90;;;10.60;77.90;;;;;;4925452;28;113010;-53
2024/03/13 07:22:03;;;;;;;21.42;19.05;;;10.60;77.30;;;;;;4945428;28;112807;-53
2024/03/13 07:24:29;;;;;;;25.75;20.25;;;10.60;77.50;;;;;;4935154;28;115120;-53
2024/03/13 07:26:55;;;;;;;22.90;19.42;;;10.80;77.50;;;;;;4929910;28;112619;-51
2024/03/13 07:29:20;;;;;;;23.23;19.33;;;11.00;77.00;;;;;;4930837;28;112635;-50
2024/03/13 07:31:46;;;;;;;24.10;18.42;;;11.00;76.50;;;;;;4930973;28;113155;-50
2024/03/13 07:34:12;;;;;;;22.83;19.02;;;11.10;75.90;;;;;;4928112;28;114597;-55
2024/03/13 07:36:38;;;;;;;25.10;18.63;;;11.10;75.30;;;;;;4928917;28;113871;-53
2024/03/13 07:39:10;;;;;;;19.92;17.42;;;11.10;76.10;;;;;;4931158;28;112989;-51
2024/03/13 07:41:36;;;;;;;20.60;17.98;;;11.10;74.70;;;;;;4931995;28;112516;-53
2024/03/13 07:44:03;;;;;;;23.90;19.95;;;11.20;74.60;;;;;;4927621;28;113238;-50
2024/03/13 07:46:29;;;;;;;23.67;18.42;;;11.20;75.10;;;;;;4927294;28;113797;-54
2024/03/13 07:48:55;;;;;;;23.33;18.75;;;11.30;75.00;;;;;;4927171;28;113875;-52
2024/03/13 07:51:21;;;;;;;25.48;19.70;;;11.40;75.20;;;;;;4929638;28;112718;-52
2024/03/13 07:53:48;;;;;;;27.10;20.67;;;11.40;75.50;;;;;;4928925;28;114412;-52
2024/03/13 07:56:13;;;;;;;25.63;20.20;;;11.50;76.00;;;;;;4928652;28;113111;-56
2024/03/13 07:58:39;;;;;;;24.15;20.73;;;11.60;76.00;;;;;;4929577;28;112654;-52
2024/03/13 08:01:07;;;;;;;26.40;21.20;;;11.60;75.90;;;;;;4930046;28;112644;-52
2024/03/13 08:03:33;;;;;;;26.67;21.38;;;11.80;75.30;;;;;;4938575;28;113490;-55
2024/03/13 08:05:59;;;;;;;28.45;22.60;;;11.90;74.60;;;;;;4948628;28;113096;-52
2024/03/13 08:08:24;;;;;;;29.17;23.63;;;11.80;75.30;;;;;;4949935;28;112748;-55
2024/03/13 08:10:50;;;;;;;24.52;21.50;;;11.80;75.70;;;;;;4949891;28;112647;-52
2024/03/13 08:13:16;;;;;;;29.75;22.83;;;11.80;75.20;;;;;;4948626;28;113473;-52
2024/03/13 08:15:42;;;;;;;26.58;21.77;;;11.80;75.80;;;;;;4949006;28;112870;-52
2024/03/13 08:18:14;;;;;;;28.70;23.05;;;11.90;75.00;;;;;;4949133;28;112756;-52
2024/03/13 08:20:41;;;;;;;27.23;22.90;;;11.90;75.70;;;;;;4949562;28;112608;-52
2024/03/13 08:23:08;;;;;;;30.52;22.52;;;11.90;75.60;;;;;;4948136;28;115824;-52
2024/03/13 08:25:34;;;;;;;29.63;24.10;;;11.90;75.10;;;;;;4948056;28;113837;-52
2024/03/13 08:28:00;;;;;;;28.52;23.58;;;11.90;74.80;;;;;;4949035;28;112517;-52
2024/03/13 08:30:26;;;;;;;28.65;23.45;;;11.80;75.20;;;;;;4949296;28;112723;-52
2024/03/13 08:32:53;;;;;;;24.40;21.80;;;11.90;75.20;;;;;;4948347;28;113135;-51
2024/03/13 08:35:21;;;;;;;25.55;21.58;;;11.80;74.80;;;;;;4947400;28;112934;-53
2024/03/13 08:37:47;;;;;;;23.08;19.15;;;12.00;74.80;;;;;;4948815;28;112588;-52
2024/03/13 08:40:13;;;;;;;24.17;19.58;;;12.00;73.40;;;;;;4948965;28;112640;-52
2024/03/13 08:42:45;;;;;;;21.67;17.77;;;12.10;73.70;;;;;;4948322;28;114661;-52
2024/03/13 08:45:13;;;;;;;22.03;17.33;;;12.50;72.80;;;;;;4948112;28;112722;-52
2024/03/13 08:47:39;;;;;;;20.40;17.85;;;12.70;70.40;;;;;;4948811;28;113163;-53
2024/03/13 08:50:06;;;;;;;17.90;15.80;;;13.30;69.70;;;;;;4948919;28;112755;-55
2024/03/13 08:52:34;;;;;;;18.50;15.23;;;13.50;68.50;;;;;;4947980;28;114343;-53
2024/03/13 08:55:00;;;;;;;22.13;16.20;;;14.60;66.20;;;;;;4948083;28;113187;-54
2024/03/13 08:57:28;;;;;;;21.48;16.08;;;14.90;64.60;;;;;;4948812;28;112884;-57
2024/03/13 08:59:55;;;;;;;18.70;16.45;;;14.80;64.90;;;;;;4948455;28;112778;-52
2024/03/13 09:02:21;;;;;;;19.13;16.25;;;15.20;64.30;;;;;;4934347;28;114496;-52
2024/03/13 09:04:48;;;;;;;19.15;15.85;;;15.00;63.40;;;;;;4947532;28;113033;-52
2024/03/13 09:07:13;;;;;;;18.52;15.73;;;15.40;64.00;;;;;;4948620;28;112723;-52
2024/03/13 09:09:39;;;;;;;19.52;16.10;;;15.40;63.30;;;;;;4947951;28;113242;-51
2024/03/13 09:12:13;;;;;;;19.45;15.45;;;15.80;62.80;;;;;;4947962;28;113147;-51
2024/03/13 09:14:39;;;;;;;16.48;14.70;;;16.10;61.10;;;;;;4947360;28;112932;-52
2024/03/13 09:17:08;;;;;;;17.17;14.85;;;16.50;60.40;;;;;;4948575;28;112573;-54
2024/03/13 09:19:37;;;;;;;16.55;14.82;;;17.40;57.20;;;;;;4948388;28;113290;-53
2024/03/13 09:22:04;;;;;;;18.77;14.55;;;17.90;56.10;;;;;;4947560;28;113413;-55
2024/03/13 09:24:30;;;;;;;15.95;14.25;;;18.50;54.60;;;;;;4947470;28;112973;-53
2024/03/13 09:26:56;;;;;;;16.30;14.02;;;18.90;53.90;;;;;;4948545;28;113100;-50
2024/03/13 09:29:23;;;;;;;15.23;13.63;;;18.90;54.30;;;;;;4948573;28;112841;-51
2024/03/13 09:31:49;;;;;;;15.63;13.80;;;19.90;52.20;;;;;;4947367;28;113394;-51
2024/03/13 09:34:15;;;;;;;15.60;13.85;;;20.10;51.30;;;;;;4947307;28;113864;-52
2024/03/13 09:36:41;;;;;;;14.25;12.82;;;19.90;49.40;;;;;;4948505;28;112985;-52
2024/03/13 09:39:09;;;;;;;15.50;13.10;;;19.90;50.00;;;;;;4947899;28;113079;-52
2024/03/13 09:41:34;;;;;;;14.50;12.13;;;19.10;50.90;;;;;;4946713;28;113772;-52
2024/03/13 09:44:01;;;;;;;14.07;11.98;;;18.80;50.60;;;;;;4947400;28;112730;-52
2024/03/13 09:46:28;;;;;;;14.85;12.30;;;18.20;53.20;;;;;;4946746;28;112601;-52
2024/03/13 09:48:57;;;;;;;13.48;10.95;;;18.20;53.10;;;;;;4946626;28;114213;-51
2024/03/13 09:51:23;;;;;;;14.27;11.57;;;18.70;52.70;;;;;;4947016;28;114467;-51
2024/03/13 09:53:50;;;;;;;13.25;11.80;;;19.40;50.40;;;;;;4946993;28;112857;-51
2024/03/13 09:56:18;;;;;;;13.52;11.63;;;19.40;49.70;;;;;;4948140;28;112564;-53
2024/03/13 09:58:45;;;;;;;13.30;11.13;;;18.80;50.30;;;;;;4947714;28;112843;-56
2024/03/13 10:01:19;;;;;;;13.45;11.35;;;18.30;52.30;;;;;;4943033;28;113353;-53
2024/03/13 10:03:55;;;;;;;14.82;11.07;;;17.90;53.30;;;;;;4938125;28;114440;-53
2024/03/13 10:06:24;;;;;;;16.98;11.77;;;18.40;52.10;;;;;;4947595;28;112936;-52
2024/03/13 10:08:53;;;;;;;12.07;10.88;;;18.30;53.00;;;;;;4948470;28;113027;-53
2024/03/13 10:11:23;;;;;;;12.48;11.00;;;18.90;51.90;;;;;;4945134;28;114906;-53
2024/03/13 10:13:50;;;;;;;12.88;11.48;;;19.60;51.30;;;;;;4946692;28;114270;-53
2024/03/13 10:16:22;;;;;;;12.60;11.30;;;20.10;49.80;;;;;;4947535;28;112624;-52
2024/03/13 10:18:51;;;;;;;12.90;10.60;;;21.10;48.80;;;;;;4947956;28;113030;-53
2024/03/13 10:21:26;;;;;;;14.68;10.88;;;21.30;46.70;;;;;;4946754;28;113198;-52
2024/03/13 10:23:55;;;;;;;11.80;10.15;;;20.80;47.60;;;;;;4946882;28;113080;-52
2024/03/13 10:26:22;;;;;;;11.77;10.68;;;20.90;48.10;;;;;;4947135;28;112842;-51
2024/03/13 10:28:48;;;;;;;11.15;10.05;;;21.10;47.20;;;;;;4947433;28;112792;-52
2024/03/13 10:31:15;;;;;;;12.23;9.73;;;22.10;45.00;;;;;;4946345;28;114410;-51
2024/03/13 10:33:42;;;;;;;11.45;10.25;;;23.50;42.80;;;;;;4946858;28;113849;-52
2024/03/13 10:36:07;;;;;;;11.57;10.48;;;24.40;40.80;;;;;;4947793;28;113399;-55
2024/03/13 10:38:37;;;;;;;14.15;12.68;;;24.20;41.00;;;;;;4947018;28;112752;-52
2024/03/13 10:41:03;;;;;;;13.82;12.32;;;24.00;40.80;;;;;;4946530;28;113343;-52
2024/03/13 10:43:31;;;;;;;12.77;11.57;;;24.80;39.80;;;;;;4946056;28;112833;-52
2024/03/13 10:45:57;;;;;;;12.88;11.68;;;25.30;39.30;;;;;;4947204;28;112658;-56
2024/03/13 10:48:24;;;;;;;12.30;11.02;;;26.30;38.00;;;;;;4947038;28;112708;-53
2024/03/13 10:51:00;;;;;;;13.48;12.27;;;25.60;38.10;;;;;;4946132;28;114545;-55
2024/03/13 10:53:26;;;;;;;13.70;12.45;;;25.60;39.20;;;;;;4946208;28;112631;-52
2024/03/13 10:55:51;;;;;;;13.25;12.02;;;24.30;40.40;;;;;;4946027;28;112910;-52
2024/03/13 10:58:22;;;;;;;13.63;12.32;;;25.20;39.70;;;;;;4949023;28;112758;-52
2024/03/13 11:00:48;;;;;;;13.63;12.35;;;25.00;39.40;;;;;;4948649;28;114558;-53
2024/03/13 11:03:14;;;;;;;13.05;11.90;;;26.30;37.60;;;;;;4936629;28;113803;-53
2024/03/13 11:05:40;;;;;;;13.23;11.98;;;26.70;36.80;;;;;;4950536;28;112591;-54
2024/03/13 11:08:07;;;;;;;12.90;11.80;;;27.40;36.00;;;;;;4951075;28;112706;-52
2024/03/13 11:10:34;;;;;;;14.32;13.18;;;26.70;36.50;;;;;;4949841;28;113334;-52
2024/03/13 11:13:10;;;;;;;15.35;13.88;;;26.60;36.50;;;;;;4949301;28;114036;-52
2024/03/13 11:15:38;;;;;;;14.55;13.25;;;26.80;37.70;;;;;;4950667;28;112720;-52
2024/03/13 11:18:05;;;;;;;16.33;14.73;;;28.30;35.60;;;;;;4948741;28;112709;-53
2024/03/13 11:20:39;;;;;;;15.80;14.40;;;27.10;36.40;;;;;;4949521;28;114285;-53
2024/03/13 11:23:20;;;;;;;14.70;13.20;;;27.90;36.00;;;;;;4948895;28;114157;-52
2024/03/13 11:25:49;;;;;;;14.50;13.15;;;27.90;35.30;;;;;;4950394;28;112820;-53
2024/03/13 11:28:23;;;;;;;13.57;12.38;;;28.30;35.10;;;;;;4949959;28;112716;-53
2024/03/13 11:30:50;;;;;;;16.30;14.90;;;28.40;34.80;;;;;;4949251;28;113179;-54
2024/03/13 11:33:16;;;;;;;15.90;14.45;;;29.10;33.60;;;;;;4949123;28;112598;-53
2024/03/13 11:35:42;;;;;;;14.10;12.80;;;28.20;34.70;;;;;;4950303;28;112922;-52
2024/03/13 11:38:09;;;;;;;13.43;12.20;;;29.90;33.40;;;;;;4949453;28;112910;-52
2024/03/13 11:40:36;;;;;;;13.10;11.90;;;29.20;33.20;;;;;;4949093;28;114823;-51
2024/03/13 11:43:05;;;;;;;13.00;11.80;;;30.20;32.70;;;;;;4948821;28;112594;-51
2024/03/13 11:45:40;;;;;;;13.27;11.98;;;32.80;29.60;;;;;;4949766;28;112690;-53
2024/03/13 11:48:15;;;;;;;15.73;12.43;;;33.70;28.50;;;;;;4950233;28;112999;-52
2024/03/13 11:51:00;;;;;;;13.85;12.45;;;33.80;28.30;;;;;;4948904;28;113238;-52
2024/03/13 11:53:26;;;;;;;13.30;12.00;;;35.40;26.20;;;;;;4948906;28;113264;-52
2024/03/13 11:55:53;;;;;;;13.32;12.02;;;35.00;25.90;;;;;;4949978;28;112660;-52
2024/03/13 11:58:20;;;;;;;16.08;14.57;;;33.10;28.00;;;;;;4949792;28;113183;-53
2024/03/13 12:00:49;;;;;;;15.57;13.98;;;31.70;30.00;;;;;;4948305;28;113843;-52
2024/03/13 12:03:15;;;;;;;15.75;14.35;;;32.40;29.10;;;;;;4935633;28;112934;-52
2024/03/13 12:05:41;;;;;;;15.07;13.80;;;32.70;29.20;;;;;;4948195;28;112657;-53
2024/03/13 12:08:12;;;;;;;14.73;13.48;;;31.60;31.10;;;;;;4949893;28;112736;-52
2024/03/13 12:10:39;;;;;;;16.30;14.75;;;30.90;30.30;;;;;;4947786;28;113785;-51
2024/03/13 12:13:05;;;;;;;16.20;14.57;;;30.40;30.40;;;;;;4948724;28;112705;-53
2024/03/13 12:15:31;;;;;;;15.07;13.48;;;29.70;32.10;;;;;;4949389;28;112800;-52
2024/03/13 12:17:57;;;;;;;15.32;13.73;;;28.90;32.00;;;;;;4949580;28;112698;-52
2024/03/13 12:20:24;;;;;;;17.17;14.80;;;28.10;32.90;;;;;;4948428;28;114713;-53
2024/03/13 12:22:50;;;;;;;17.55;15.82;;;28.90;32.80;;;;;;4948308;28;113854;-52
2024/03/13 12:25:17;;;;;;;18.35;16.67;;;29.20;32.20;;;;;;4949580;28;112676;-52
2024/03/13 12:27:47;;;;;;;20.23;18.58;;;28.40;32.70;;;;;;4949152;28;112782;-52
2024/03/13 12:30:14;;;;;;;17.75;16.25;;;28.60;32.50;;;;;;4947881;28;113333;-52
2024/03/13 12:32:40;;;;;;;17.15;15.70;;;28.20;34.30;;;;;;4948270;28;112688;-56
2024/03/13 12:35:13;;;;;;;15.07;13.65;;;28.40;33.00;;;;;;4949151;28;112529;-52
2024/03/13 12:37:39;;;;;;;15.77;14.23;;;28.00;34.20;;;;;;4948690;28;112751;-52
2024/03/13 12:40:08;;;;;;;22.08;20.08;;;28.10;34.10;;;;;;4948156;28;113129;-52
2024/03/13 12:42:40;;;;;;;22.20;20.33;;;27.80;34.30;;;;;;4948008;28;115218;-52
2024/03/13 12:45:11;;;;;;;14.95;13.55;;;27.60;34.20;;;;;;4948832;28;112686;-52